| Date | Temp | Humidity | Rainfall | Dew Point | Wind Direction | Wind Speed | Wind Pressure | Condition | Visibility |
|---|---|---|---|---|---|---|---|---|---|
| 2025-05-21 11:01:08 | 30 | 76 | 25 | 050 | 13.3 | 1010 | Partly Cloudy (Day) | 20 KM | |
| 2025-05-21 09:58:12 | 28 | 81 | 0.00 | 26 | 060 | 9.5 | 1011 | Partly Cloudy (Day) | 20 km |
| 2025-05-21 08:59:49 | 28 | 82 | 0.00 | 25 | 020 | 5.7 | 1010 | Partly Cloudy (Day) | 20 km |
| 2025-05-21 08:02:00 | 27 | 87 | 0.0 | 25 | 220 | 5.7 | 1010 | Partly Cloudy (Day) | 20 km |
| 2025-05-21 07:04:57 | 26 | 90 | 0.0 | 25 | 290 | 1.9 | 1009 | Partly Cloudy (Day) | 20 km |
| 2025-05-21 06:02:10 | 26 | 94 | 0.0 | 25 | 350 | 1.9 | 1008 | Partly Cloudy (Day) | 15 km |
| 2025-05-21 05:01:15 | 26 | 93 | 0.0 | 25 | 120 | 1.9 | 1008 | Partly Cloudy (Night) | 10 km |
| 2025-05-21 03:59:48 | 26 | 92 | 0.0 | 25 | 090 | 1.9 | 1008 | Night Shower | 10 km |
| 2025-05-21 03:06:51 | 26 | 94 | 0.0 | 25 | 110 | 7.6 | 1009 | Night Shower | 10 km |
| 2025-05-21 02:06:38 | 26 | 93 | 0.01 MM | 25 | 120 | 1.9 | 1009 | Night Shower | 10 KM |
| 2025-05-21 01:00:14 | 27 | 92 | 0.0 | 25 | 110 | 1.9 | 1010 | Partly Cloudy (Night) | 10 KM |
| 2025-05-21 00:02:42 | 27 | 94 | 0.0 | 26 | 090 | 3.8 | 1010 | Partly Cloudy (Night) | 10 KM |
| 2025-05-20 23:07:12 | 27 | 95 | 0.0 | 26 | 090 | 1.9 | 1011 | Partly Cloudy (Night) | 10 KM |
| 2025-05-20 22:02:19 | 27 | 94 | 0.0 | 26 | 170 | 1.9 | 1010 | Partly Cloudy (Night) | 10 KM |
| 2025-05-20 20:59:10 | 27 | 94 | 26 | 120 | 3.8 | 1010 | Rain | 10KM | |
| 2025-05-20 20:00:02 | 28 | 91 | 26 | 100 | 3.8 | 1009 | Rain | 10KM | |
| 2025-05-20 19:01:10 | 28 | 87 | 26 | 030 | 5.7 | 1009 | Showers | 10KM | |
| 2025-05-20 18:06:27 | 29 | 84 | 26 | 320 | 11.4 | 1007 | Lightning | 10KM | |
| 2025-05-20 17:04:37 | 29 | 83 | 0.00 | 26 | 310 | 9.5 | 1007 | Thundershowers | 10 km |
| 2025-05-20 16:03:20 | 28 | 88 | 0.00 | 26 | 300 | 11.4 | 1007 | Thundershowers | 10 km |
| 2025-05-20 15:03:17 | 27 | 95 | 0.0 | 26 | 260 | 1.9 | 1007 | Thundershowers | 10 km |
| 2025-05-20 14:02:13 | 27 | 95 | 0.0 | 26 | 320 | 7.6 | 1008 | Thundershowers | 06 km |
| 2025-05-20 13:03:03 | 30 | 77 | 0.01 MM | 26 | 300 | 19.0 | 1008 | Shower Day | 09 KM |
| 2025-05-20 12:01:05 | 31 | 71 | 0.0 | 25 | 300 | 9.5 | 1009 | Partly Cloudy (Day) | 20 KM |
| 2025-05-20 11:02:51 | 30 | 71 | 0.0 | 25 | 220 | 7.6 | 1010 | Partly Cloudy (Day) | 20 KM |